createdAt,value
2023-05-19T00:01:37.665Z,79.50
2023-05-19T00:04:07.393Z,78.46
2023-05-19T00:06:38.584Z,79.36
2023-05-19T00:09:13.601Z,79.84
2023-05-19T00:11:47.576Z,79.70
2023-05-19T00:14:16.228Z,79.70
2023-05-19T00:16:52.354Z,79.13
2023-05-19T00:19:21.216Z,79.83
2023-05-19T00:21:54.664Z,78.64
2023-05-19T00:24:22.870Z,79.82
2023-05-19T00:26:52.582Z,79.45
2023-05-19T00:29:24.544Z,78.84
2023-05-19T00:31:54.413Z,79.66
2023-05-19T00:34:24.980Z,80.19
2023-05-19T00:36:53.546Z,79.31
2023-05-19T00:39:30.136Z,79.23
2023-05-19T00:42:00.981Z,78.95
2023-05-19T00:44:29.035Z,79.76
2023-05-19T00:46:59.869Z,82.20
2023-05-19T00:49:29.014Z,79.43
2023-05-19T00:51:58.395Z,77.68
2023-05-19T00:54:32.604Z,77.33
2023-05-19T00:57:01.962Z,78.35
2023-05-19T00:59:35.949Z,77.53
2023-05-19T01:02:05.999Z,77.33
2023-05-19T01:04:35.168Z,77.18
2023-05-19T01:07:09.536Z,77.78
2023-05-19T01:09:42.027Z,78.25
2023-05-19T01:12:12.190Z,77.14
2023-05-19T01:14:42.368Z,78.15
2023-05-19T01:17:23.110Z,77.83
2023-05-19T01:20:03.246Z,78.28
2023-05-19T01:22:45.278Z,78.39
2023-05-19T01:25:46.440Z,78.90
2023-05-19T01:29:07.387Z,80.10
2023-05-19T01:31:40.048Z,79.53
2023-05-19T01:34:09.576Z,81.11
2023-05-19T01:36:42.278Z,80.93
2023-05-19T01:39:10.872Z,81.33
2023-05-19T01:41:43.574Z,81.35
2023-05-19T01:44:12.056Z,81.27
2023-05-19T01:46:43.007Z,80.60
2023-05-19T01:49:11.379Z,81.34
2023-05-19T01:51:39.617Z,80.65
2023-05-19T01:54:10.878Z,81.12
2023-05-19T01:56:49.858Z,81.16
2023-05-19T01:59:45.398Z,81.24
2023-05-19T02:02:26.570Z,82.02
2023-05-19T02:05:08.457Z,81.34
2023-05-19T02:07:43.712Z,82.15
2023-05-19T02:10:17.808Z,81.87
2023-05-19T02:12:49.681Z,82.32
2023-05-19T02:15:19.947Z,82.85
2023-05-19T02:17:57.003Z,81.87
2023-05-19T02:20:25.073Z,82.21
2023-05-19T02:22:56.042Z,82.61
2023-05-19T02:25:25.093Z,82.97
2023-05-19T02:27:57.803Z,82.57
2023-05-19T02:30:29.375Z,81.82
2023-05-19T02:32:58.955Z,81.82
2023-05-19T02:35:27.946Z,81.68
2023-05-19T02:37:56.011Z,81.97
2023-05-19T02:40:24.256Z,82.81
2023-05-19T02:42:52.103Z,82.16
2023-05-19T02:45:20.167Z,82.46
2023-05-19T02:47:48.488Z,83.42
2023-05-19T02:50:41.488Z,82.50
2023-05-19T02:53:11.657Z,83.71
2023-05-19T02:55:41.295Z,84.94
2023-05-19T02:58:09.200Z,84.53
2023-05-19T03:00:49.422Z,85.70
2023-05-19T03:03:18.678Z,85.19
2023-05-19T03:05:48.307Z,85.83
2023-05-19T03:08:17.159Z,86.69
2023-05-19T03:10:46.991Z,86.74
2023-05-19T03:13:17.044Z,87.08
2023-05-19T03:15:47.640Z,87.80
2023-05-19T03:18:16.656Z,87.82
2023-05-19T03:20:47.575Z,87.44
2023-05-19T03:23:17.535Z,88.32
2023-05-19T03:25:46.745Z,88.73
2023-05-19T03:28:14.924Z,88.19
2023-05-19T03:30:48.211Z,88.33
2023-05-19T03:33:16.384Z,89.47
2023-05-19T03:35:48.200Z,88.85
2023-05-19T03:38:22.919Z,90.62
2023-05-19T03:40:52.062Z,89.17
2023-05-19T03:43:20.135Z,89.21
2023-05-19T03:45:47.937Z,89.44
2023-05-19T03:48:21.044Z,89.55
2023-05-19T03:50:59.562Z,92.12
2023-05-19T03:53:36.233Z,92.25
2023-05-19T03:56:07.976Z,91.49
2023-05-19T03:58:46.482Z,90.30
2023-05-19T04:01:20.710Z,90.37
2023-05-19T04:03:49.256Z,90.86
2023-05-19T04:06:17.535Z,89.72
2023-05-19T04:08:49.742Z,90.26
2023-05-19T04:11:21.724Z,92.64
2023-05-19T04:13:52.033Z,90.62
2023-05-19T04:16:22.794Z,91.35
2023-05-19T04:18:50.895Z,90.28
2023-05-19T04:21:22.402Z,90.87
2023-05-19T04:23:51.892Z,90.10
2023-05-19T04:26:22.647Z,89.93
2023-05-19T04:29:03.308Z,89.83
2023-05-19T04:31:34.435Z,90.38
2023-05-19T04:34:03.378Z,90.29
2023-05-19T04:36:32.221Z,91.09
2023-05-19T04:39:05.813Z,91.55
2023-05-19T04:41:35.216Z,91.81
2023-05-19T04:44:06.512Z,90.58
2023-05-19T04:46:37.638Z,90.40
2023-05-19T04:49:05.887Z,90.61
2023-05-19T04:51:36.646Z,89.81
2023-05-19T04:54:10.295Z,90.56
2023-05-19T04:56:38.780Z,89.49
2023-05-19T04:59:07.021Z,88.58
2023-05-19T05:01:41.482Z,86.13
2023-05-19T05:04:09.969Z,85.68
2023-05-19T05:06:41.190Z,83.61
2023-05-19T05:09:11.673Z,84.33
2023-05-19T05:11:41.279Z,84.51
2023-05-19T05:14:10.276Z,85.08
2023-05-19T05:16:39.681Z,86.11
2023-05-19T05:19:11.982Z,88.26
2023-05-19T05:21:41.814Z,87.34
2023-05-19T05:24:14.052Z,87.98
2023-05-19T05:26:43.180Z,87.79
2023-05-19T05:29:11.619Z,88.59
2023-05-19T05:31:41.220Z,88.98
2023-05-19T05:34:09.393Z,89.93
2023-05-19T05:36:37.697Z,89.71
2023-05-19T05:39:06.158Z,87.80
2023-05-19T05:41:36.334Z,86.43
2023-05-19T05:44:05.271Z,85.94
2023-05-19T05:46:34.582Z,86.39
2023-05-19T05:49:04.295Z,86.18
2023-05-19T05:51:33.256Z,84.78
2023-05-19T05:54:03.320Z,85.01
2023-05-19T05:56:34.770Z,81.82
2023-05-19T05:59:04.467Z,81.37
2023-05-19T06:01:34.834Z,82.07
2023-05-19T06:04:11.001Z,82.44
2023-05-19T06:06:39.322Z,81.38
2023-05-19T06:09:08.030Z,80.23
2023-05-19T06:11:36.946Z,80.58
2023-05-19T06:14:07.547Z,79.29
2023-05-19T06:16:35.405Z,77.90
2023-05-19T06:19:03.308Z,77.01
2023-05-19T06:21:33.142Z,76.14
2023-05-19T06:24:02.403Z,78.09
2023-05-19T06:26:33.083Z,77.70
2023-05-19T06:29:02.913Z,76.37
2023-05-19T06:31:34.438Z,76.23
2023-05-19T06:34:05.908Z,78.14
2023-05-19T06:36:35.452Z,79.47
2023-05-19T06:39:04.800Z,78.54
2023-05-19T06:41:33.048Z,78.97
2023-05-19T06:44:00.876Z,81.14
2023-05-19T06:46:29.304Z,79.79
2023-05-19T06:48:59.179Z,78.10
2023-05-19T06:51:27.267Z,78.08
2023-05-19T06:53:55.676Z,76.31
2023-05-19T06:56:23.949Z,76.52
2023-05-19T06:58:54.002Z,76.30
2023-05-19T07:01:21.857Z,77.70
2023-05-19T07:03:50.844Z,76.74
2023-05-19T07:06:20.100Z,76.23
2023-05-19T07:08:48.348Z,75.43
2023-05-19T07:11:16.650Z,72.96
2023-05-19T07:13:44.957Z,75.22
2023-05-19T07:16:12.853Z,74.27
2023-05-19T07:18:40.977Z,68.12
2023-05-19T07:21:08.893Z,62.22
2023-05-19T07:23:37.951Z,57.54
2023-05-19T07:26:05.885Z,56.27
2023-05-19T07:28:34.346Z,53.58
2023-05-19T07:31:02.461Z,56.19
2023-05-19T07:33:30.479Z,54.37
2023-05-19T07:35:58.476Z,54.61
2023-05-19T07:38:26.329Z,54.20
2023-05-19T07:40:56.809Z,51.46
2023-05-19T07:43:25.806Z,49.76
2023-05-19T07:45:56.326Z,47.32
2023-05-19T07:48:25.736Z,42.63
2023-05-19T07:50:54.151Z,41.77
2023-05-19T07:53:22.772Z,40.91
2023-05-19T07:55:50.900Z,38.37
2023-05-19T07:58:20.726Z,39.46
2023-05-19T08:00:48.505Z,40.34
2023-05-19T08:03:18.367Z,46.33
2023-05-19T08:05:46.314Z,49.84
2023-05-19T08:08:17.006Z,52.15
2023-05-19T08:10:44.980Z,54.40
2023-05-19T08:13:12.813Z,52.92
2023-05-19T08:15:42.714Z,53.78
2023-05-19T08:18:10.658Z,54.48
2023-05-19T08:20:38.766Z,54.99
2023-05-19T08:23:06.590Z,55.55
2023-05-19T08:25:34.333Z,57.01
2023-05-19T08:28:02.481Z,58.28
2023-05-19T08:30:30.416Z,58.06
2023-05-19T08:33:00.087Z,57.09
2023-05-19T08:35:28.056Z,59.08
2023-05-19T08:37:55.871Z,59.49
2023-05-19T08:40:24.543Z,58.14
2023-05-19T08:42:52.322Z,59.64
2023-05-19T08:45:20.548Z,59.04
2023-05-19T08:47:48.422Z,58.10
2023-05-19T08:50:22.961Z,57.84
2023-05-19T08:52:53.770Z,59.15
2023-05-19T08:55:34.030Z,60.52
2023-05-19T08:58:02.499Z,61.57
2023-05-19T09:00:32.025Z,62.00
2023-05-19T09:05:35.922Z,61.35
2023-05-19T09:08:05.639Z,59.80
2023-05-19T09:10:33.506Z,59.15
2023-05-19T09:13:01.506Z,59.39
2023-05-19T09:15:32.707Z,60.07
2023-05-19T09:18:11.578Z,58.49
2023-05-19T09:20:41.855Z,59.24
2023-05-19T09:23:14.838Z,60.33
2023-05-19T09:25:49.425Z,59.82
2023-05-19T09:28:24.745Z,61.41
2023-05-19T09:31:01.493Z,61.79
2023-05-19T09:33:29.634Z,63.30
2023-05-19T09:35:59.034Z,63.09
2023-05-19T09:38:27.242Z,61.62
2023-05-19T09:40:57.076Z,62.18
2023-05-19T09:43:24.886Z,61.98
2023-05-19T09:45:56.805Z,60.67
2023-05-19T09:48:27.711Z,60.92
2023-05-19T09:50:56.708Z,61.75
2023-05-19T09:53:26.432Z,59.54
2023-05-19T09:55:57.849Z,58.64
2023-05-19T09:58:26.286Z,59.69
2023-05-19T10:00:55.782Z,58.52
2023-05-19T10:03:24.523Z,59.13
2023-05-19T10:05:54.314Z,59.18
2023-05-19T10:08:24.500Z,56.75
2023-05-19T10:10:53.873Z,57.10
2023-05-19T10:13:23.016Z,56.40
2023-05-19T10:18:24.735Z,55.06
2023-05-19T10:20:53.736Z,53.99
2023-05-19T10:23:22.484Z,54.35
2023-05-19T10:25:53.618Z,52.89
2023-05-19T10:28:28.341Z,51.34
2023-05-19T10:31:00.944Z,48.33
2023-05-19T10:33:43.085Z,48.54
2023-05-19T10:36:33.810Z,51.08
2023-05-19T10:39:06.945Z,51.76
2023-05-19T10:41:45.000Z,50.65
2023-05-19T10:44:22.772Z,50.76
2023-05-19T10:46:52.505Z,48.63
2023-05-19T10:49:22.597Z,46.77
2023-05-19T10:51:51.090Z,46.28
2023-05-19T10:54:19.571Z,43.69
2023-05-19T10:56:50.626Z,44.19
2023-05-19T10:59:37.125Z,44.14
2023-05-19T11:02:05.789Z,43.92
2023-05-19T11:04:49.588Z,43.38
2023-05-19T11:07:21.021Z,43.38
2023-05-19T11:09:52.599Z,43.25
2023-05-19T11:12:25.566Z,44.76
2023-05-19T11:14:55.418Z,45.53
2023-05-19T11:17:27.335Z,45.31
2023-05-19T11:19:59.164Z,44.66
2023-05-19T11:22:28.187Z,45.77
2023-05-19T11:24:56.449Z,44.68
2023-05-19T11:27:28.167Z,44.97
2023-05-19T11:29:57.462Z,45.19
2023-05-19T11:32:29.297Z,44.71
2023-05-19T11:34:57.923Z,44.26
2023-05-19T11:37:25.983Z,44.26
2023-05-19T11:39:54.283Z,43.25
2023-05-19T11:42:22.226Z,41.88
2023-05-19T11:44:51.490Z,41.74
2023-05-19T11:47:19.509Z,41.81
2023-05-19T11:49:49.534Z,42.29
2023-05-19T11:52:17.547Z,41.75
2023-05-19T11:54:49.896Z,41.81
2023-05-19T11:57:18.450Z,41.77
2023-05-19T11:59:49.866Z,41.45
2023-05-19T12:02:20.662Z,43.73
2023-05-19T12:04:49.422Z,43.82
2023-05-19T12:07:18.891Z,43.43
2023-05-19T12:09:47.543Z,42.97
2023-05-19T12:12:17.251Z,42.51
2023-05-19T12:14:45.464Z,41.71
2023-05-19T12:17:15.097Z,43.51
2023-05-19T12:19:46.131Z,42.40
2023-05-19T12:22:15.857Z,42.03
2023-05-19T12:24:44.970Z,42.44
2023-05-19T12:27:14.065Z,42.91
2023-05-19T12:29:41.990Z,42.92
2023-05-19T12:32:10.585Z,42.40
2023-05-19T12:34:39.152Z,42.73
2023-05-19T12:37:08.393Z,43.58
2023-05-19T12:39:37.278Z,42.97
2023-05-19T12:42:08.848Z,42.74
2023-05-19T12:44:38.749Z,42.03
2023-05-19T12:47:08.194Z,42.96
2023-05-19T12:49:35.891Z,42.77
2023-05-19T12:52:07.099Z,42.97
2023-05-19T12:54:40.476Z,42.33
2023-05-19T12:57:08.519Z,42.88
2023-05-19T12:59:38.857Z,43.85
2023-05-19T13:02:07.509Z,44.25
2023-05-19T13:04:36.185Z,44.15
2023-05-19T13:07:03.995Z,43.55
2023-05-19T13:09:35.025Z,42.91
2023-05-19T13:12:04.840Z,43.85
2023-05-19T13:14:32.716Z,43.22
2023-05-19T13:17:00.668Z,43.22
2023-05-19T13:19:28.658Z,42.35
2023-05-19T13:21:56.626Z,42.02
2023-05-19T13:24:24.329Z,41.30
2023-05-19T13:26:53.870Z,41.00
2023-05-19T13:29:23.080Z,41.32
2023-05-19T13:31:50.996Z,42.23
2023-05-19T13:34:19.877Z,42.74
2023-05-19T13:36:48.891Z,43.11
2023-05-19T13:39:16.847Z,42.87
2023-05-19T13:41:44.564Z,42.66
2023-05-19T13:44:12.407Z,42.35
2023-05-19T13:46:45.597Z,42.64
2023-05-19T13:49:14.335Z,42.08
2023-05-19T13:51:44.093Z,42.87
2023-05-19T13:54:11.949Z,42.93
2023-05-19T13:56:40.722Z,42.98
2023-05-19T13:59:08.532Z,42.35
2023-05-19T14:01:37.103Z,42.41
2023-05-19T14:04:07.210Z,42.24
2023-05-19T14:06:35.122Z,42.79
2023-05-19T14:09:02.897Z,42.61
2023-05-19T14:11:30.643Z,42.01
2023-05-19T14:13:58.677Z,42.26
2023-05-19T14:16:28.727Z,42.19
2023-05-19T14:18:56.555Z,42.48
2023-05-19T14:21:25.987Z,42.58
2023-05-19T14:23:53.845Z,42.73
2023-05-19T14:26:22.052Z,42.69
2023-05-19T14:28:49.841Z,42.66
2023-05-19T14:31:17.669Z,42.55
2023-05-19T14:33:45.531Z,42.97
2023-05-19T14:36:13.333Z,42.69
2023-05-19T14:38:42.511Z,42.78
2023-05-19T14:41:10.514Z,41.84
2023-05-19T14:43:38.356Z,42.03
2023-05-19T14:46:06.357Z,41.63
2023-05-19T14:48:34.071Z,41.78
2023-05-19T14:51:01.804Z,42.43
2023-05-19T14:53:29.677Z,41.72
2023-05-19T14:55:58.912Z,42.22
2023-05-19T14:58:29.199Z,42.27
2023-05-19T15:00:59.084Z,42.57
2023-05-19T15:03:27.313Z,42.89
2023-05-19T15:05:55.124Z,42.43
2023-05-19T15:08:23.432Z,42.34
2023-05-19T15:10:51.576Z,42.99
2023-05-19T15:13:21.560Z,43.12
2023-05-19T15:15:49.476Z,43.70
2023-05-19T15:18:18.649Z,43.53
2023-05-19T15:20:46.769Z,43.76
2023-05-19T15:23:14.654Z,44.21
2023-05-19T15:25:42.767Z,44.93
2023-05-19T15:28:10.610Z,45.01
2023-05-19T15:30:40.103Z,45.53
2023-05-19T15:33:08.001Z,45.51
2023-05-19T15:35:35.791Z,45.14
2023-05-19T15:38:06.272Z,45.50
2023-05-19T15:40:34.602Z,45.74
2023-05-19T15:43:02.988Z,45.97
2023-05-19T15:45:30.822Z,46.03
2023-05-19T15:47:59.958Z,46.25
2023-05-19T15:50:27.817Z,47.33
2023-05-19T15:52:55.602Z,47.45
2023-05-19T15:55:23.365Z,48.10
2023-05-19T15:57:51.373Z,48.63
2023-05-19T16:00:19.932Z,48.97
2023-05-19T16:02:51.734Z,49.68
2023-05-19T16:05:22.344Z,49.29
2023-05-19T16:07:50.660Z,49.67
2023-05-19T16:10:18.465Z,50.08
2023-05-19T16:12:46.250Z,50.08
2023-05-19T16:15:14.055Z,49.61
2023-05-19T16:17:43.888Z,50.35
2023-05-19T16:20:13.327Z,50.56
2023-05-19T16:22:45.090Z,50.89
2023-05-19T16:25:15.979Z,51.22
2023-05-19T16:27:46.460Z,51.41
2023-05-19T16:30:16.571Z,51.84
2023-05-19T16:32:47.025Z,51.90
2023-05-19T16:35:21.300Z,51.43
2023-05-19T16:37:53.144Z,51.91
2023-05-19T16:40:22.054Z,52.19
2023-05-19T16:42:49.809Z,51.94
2023-05-19T16:45:18.358Z,52.25
2023-05-19T16:47:47.740Z,53.04
2023-05-19T16:50:16.130Z,53.04
2023-05-19T16:52:43.971Z,53.67
2023-05-19T16:55:17.826Z,53.94
2023-05-19T16:57:45.573Z,54.62
2023-05-19T17:00:17.071Z,54.62
2023-05-19T17:02:45.103Z,55.06
2023-05-19T17:05:13.391Z,55.52
2023-05-19T17:07:44.835Z,55.85
2023-05-19T17:10:14.512Z,56.27
2023-05-19T17:12:43.867Z,56.86
2023-05-19T17:15:13.334Z,56.79
2023-05-19T17:17:46.335Z,56.21
2023-05-19T17:20:15.226Z,56.41
2023-05-19T17:22:47.207Z,56.53
2023-05-19T17:25:19.110Z,57.13
2023-05-19T17:27:47.212Z,57.74
2023-05-19T17:30:15.093Z,58.00
2023-05-19T17:32:45.606Z,58.90
2023-05-19T17:35:13.782Z,59.09
2023-05-19T17:37:42.394Z,59.51
2023-05-19T17:40:11.583Z,59.69
2023-05-19T17:42:41.440Z,60.11
2023-05-19T17:45:12.680Z,60.31
2023-05-19T17:47:40.681Z,60.95
2023-05-19T17:50:11.007Z,60.41
2023-05-19T17:52:41.712Z,61.64
2023-05-19T17:55:19.137Z,61.74
2023-05-19T17:57:50.905Z,62.10
2023-05-19T18:00:22.241Z,62.97
2023-05-19T18:02:51.106Z,63.29
2023-05-19T18:05:22.455Z,63.46
2023-05-19T18:07:52.804Z,63.28
2023-05-19T18:10:21.677Z,63.36
2023-05-19T18:12:51.438Z,64.22
2023-05-19T18:15:19.251Z,65.10
2023-05-19T18:17:47.195Z,65.92
2023-05-19T18:20:18.290Z,66.65
2023-05-19T18:22:46.996Z,66.76
2023-05-19T18:25:15.272Z,67.80
2023-05-19T18:27:43.992Z,69.17
2023-05-19T18:30:13.814Z,69.00
2023-05-19T18:32:42.018Z,69.73
2023-05-19T18:35:10.808Z,70.45
2023-05-19T18:37:38.862Z,71.08
2023-05-19T18:40:07.987Z,71.76
2023-05-19T18:42:35.945Z,72.65
2023-05-19T18:45:03.854Z,73.07
2023-05-19T18:47:33.404Z,74.23
2023-05-19T18:50:01.765Z,75.25
2023-05-19T18:52:31.332Z,75.52
2023-05-19T18:55:01.392Z,76.66
2023-05-19T18:57:29.464Z,76.69
2023-05-19T18:59:58.169Z,77.39
2023-05-19T19:02:26.568Z,78.54
2023-05-19T19:04:56.112Z,79.70
2023-05-19T19:07:25.435Z,80.32
2023-05-19T19:09:53.301Z,80.95
2023-05-19T19:12:21.313Z,80.97
2023-05-19T19:14:49.254Z,81.38
2023-05-19T19:17:17.981Z,82.20
2023-05-19T19:19:47.236Z,82.46
2023-05-19T19:22:17.087Z,83.21
2023-05-19T19:24:44.941Z,84.13
2023-05-19T19:27:16.223Z,84.35
2023-05-19T19:29:44.315Z,84.89
2023-05-19T19:32:13.395Z,85.27
2023-05-19T19:34:41.880Z,85.36
2023-05-19T19:37:11.192Z,85.98
2023-05-19T19:39:40.357Z,86.84
2023-05-19T19:42:08.161Z,87.70
2023-05-19T19:44:36.143Z,88.21
2023-05-19T19:47:06.160Z,88.95
2023-05-19T19:49:34.604Z,89.40
2023-05-19T19:52:02.733Z,89.81
2023-05-19T19:54:30.763Z,90.01
2023-05-19T19:56:59.881Z,90.25
2023-05-19T19:59:27.973Z,90.06
2023-05-19T20:01:56.210Z,90.38
2023-05-19T20:04:27.145Z,91.13
2023-05-19T20:06:55.242Z,90.99
2023-05-19T20:09:26.602Z,91.65
2023-05-19T20:11:54.930Z,92.97
2023-05-19T20:14:27.790Z,93.52
2023-05-19T20:16:56.513Z,94.04
2023-05-19T20:19:27.586Z,94.61
2023-05-19T20:21:55.908Z,94.59
2023-05-19T20:24:24.954Z,96.91
2023-05-19T20:26:53.298Z,97.40
2023-05-19T20:29:34.607Z,97.86
2023-05-19T20:32:04.123Z,98.19
2023-05-19T20:34:38.569Z,98.85
2023-05-19T20:37:09.543Z,99.83
2023-05-19T20:39:37.644Z,100.00
2023-05-19T20:42:07.995Z,100.00
2023-05-19T20:44:37.445Z,100.00
2023-05-19T20:47:08.325Z,100.00
2023-05-19T20:49:40.885Z,100.00
2023-05-19T20:52:09.463Z,100.00
2023-05-19T20:54:39.570Z,100.00
2023-05-19T20:57:09.374Z,100.00
2023-05-19T20:59:40.447Z,100.00
2023-05-19T21:02:19.018Z,100.00
2023-05-19T21:04:49.370Z,100.00
2023-05-19T21:07:22.026Z,100.00
2023-05-19T21:09:52.566Z,100.00
2023-05-19T21:12:24.042Z,100.00
2023-05-19T21:14:52.440Z,100.00
2023-05-19T21:17:21.945Z,100.00
2023-05-19T21:19:57.707Z,100.00
2023-05-19T21:22:29.730Z,100.00
2023-05-19T21:24:58.210Z,100.00
2023-05-19T21:27:36.524Z,100.00
2023-05-19T21:30:11.061Z,100.00
2023-05-19T21:32:44.438Z,100.00
2023-05-19T21:35:16.072Z,100.00
2023-05-19T21:37:48.298Z,100.00
2023-05-19T21:40:24.234Z,100.00
2023-05-19T21:43:06.109Z,100.00
2023-05-19T21:48:38.636Z,100.00
2023-05-19T21:51:23.136Z,100.00
2023-05-19T21:53:56.846Z,100.00
2023-05-19T21:56:27.495Z,100.00
2023-05-19T21:59:01.870Z,100.00
2023-05-19T22:01:35.203Z,100.00
2023-05-19T22:04:19.217Z,100.00
2023-05-19T22:06:48.804Z,100.00
2023-05-19T22:09:18.855Z,100.00
2023-05-19T22:11:50.195Z,100.00
2023-05-19T22:14:18.614Z,100.00
2023-05-19T22:16:55.713Z,100.00
2023-05-19T22:19:25.756Z,100.00
2023-05-19T22:22:13.309Z,100.00
2023-05-19T22:24:49.905Z,100.00
2023-05-19T22:27:21.064Z,100.00
2023-05-19T22:29:54.386Z,100.00
2023-05-19T22:32:22.891Z,100.00
2023-05-19T22:34:56.344Z,100.00
2023-05-19T22:37:24.656Z,100.00
2023-05-19T22:39:55.205Z,100.00
2023-05-19T22:42:23.282Z,100.00
2023-05-19T22:44:57.478Z,100.00
2023-05-19T22:47:26.728Z,100.00
2023-05-19T22:50:02.756Z,100.00
2023-05-19T22:52:37.191Z,100.00
2023-05-19T22:55:09.920Z,100.00
2023-05-19T22:57:39.153Z,100.00
2023-05-19T23:00:14.374Z,100.00
2023-05-19T23:02:49.242Z,100.00
2023-05-19T23:05:22.298Z,100.00
2023-05-19T23:08:11.345Z,100.00
2023-05-19T23:10:41.176Z,100.00
2023-05-19T23:13:20.442Z,100.00
2023-05-19T23:15:53.141Z,100.00
2023-05-19T23:18:23.109Z,100.00
2023-05-19T23:20:58.058Z,100.00
2023-05-19T23:23:29.233Z,100.00
2023-05-19T23:26:00.744Z,100.00
2023-05-19T23:28:29.093Z,100.00
2023-05-19T23:31:03.104Z,100.00
2023-05-19T23:33:31.301Z,100.00
2023-05-19T23:36:05.191Z,100.00
2023-05-19T23:38:44.507Z,100.00
2023-05-19T23:41:12.801Z,100.00
2023-05-19T23:43:43.018Z,100.00
2023-05-19T23:46:14.923Z,100.00
2023-05-19T23:48:44.427Z,100.00
2023-05-19T23:51:18.176Z,100.00
2023-05-19T23:53:49.905Z,100.00
2023-05-19T23:56:19.195Z,100.00
2023-05-19T23:58:49.117Z,100.00
